Detalii statie VESTAGRAR MARGHITA [00001D0E]

Toti senzorii

Date Temperatura solului [C]Precipitatii [mm]Voltaj baterie [mV]Leaf Wetness [Min]HC Air temperature [C]HC Relative humidity [%]Punctul de roua [C]
medieminmaxsumaultimatimpmedieminmaxmediemediemin
2017-12-10 22:00:00 0 6992 -1.2 -1.64 -0.39 0 0 0
2017-12-10 23:00:00 0 6992 0.07 -0.22 0.56 0 0 0
2017-12-11 00:00:00 0 6992 1.22 0.51 1.53 0 0 0
2017-12-11 01:00:00 0 6972 1.52 1.32 1.75 27.53 -3.3 0
2017-12-11 02:00:00 0 6972 2.08 1.57 2.7 0 0 0
2017-12-11 03:00:00 0 6962 2.16 1.8 2.42 0 0 0
2017-12-11 04:00:00 0.2 6952 1.5 1.12 1.9 0 0 0
2017-12-11 05:00:00 1 6952 1.82 1.61 2.13 0 0 0
2017-12-11 06:00:00 1 6942 2.43 2.02 2.77 0 0 0
2017-12-11 07:00:00 1.4 6942 3.7 3.28 4.14 0 0 0
2017-12-11 08:00:00 0.8 6942 4.23 3.93 4.65 0 0 0
2017-12-11 09:00:00 0.4 6922 4.26 3.57 4.94 0 0 0
2017-12-11 10:00:00 0.2 6932 5.68 5 6.34 0 0 0
2017-12-11 11:00:00 0.2 6982 7.39 6.37 8.36 0 0 0
2017-12-11 12:00:00 0 7196 9.14 8.37 10.26 0 0 0
2017-12-11 13:00:00 0 7236 11.16 10.51 11.76 0 0 0
2017-12-11 14:00:00 0 7128 11.2 11 11.6 0.95 -4.5 0
2017-12-11 15:00:00 0 7080 10.86 10.54 11.22 65.31 4.4 3.7
2017-12-11 16:00:00 0 7030 11.08 10.75 11.72 63.6 4.3 3.9
2017-12-11 17:00:00 0 7010 11.35 11.03 11.72 61.72 4.1 3.9
2017-12-11 18:00:00 0 7010 11.33 11.21 11.52 61.03 3.9 3.7
2017-12-11 19:00:00 0 7000 11.47 11.16 11.94 59.69 3.7 3.4
2017-12-11 20:00:00 0 6992 11.59 11.25 11.94 59.07 3.7 3.3
2017-12-11 21:00:00 0 6962 11.74 11.55 11.9 59.08 3.8 3.6
2017-12-11 22:00:00 0 6972 11.7 11.47 12.06 59.46 3.9 3.6
2017-12-11 23:00:00 0 6962 12.26 11.9 12.49 58.78 4.2 4
2017-12-12 00:00:00 0 6952 12.28 11.84 12.61 58.27 4.2 4.1
2017-12-12 01:00:00 0 6942 12.15 11.99 12.32 59.51 4.3 4.2
2017-12-12 02:00:00 0 6922 11.74 11.09 12.06 60.53 4.2 4
2017-12-12 03:00:00 0 6932 11.23 11.08 11.49 61.66 4 3.7
2017-12-12 04:00:00 0 6914 11.82 11.42 12.26 60.13 4.1 3.9
2017-12-12 05:00:00 0 6904 12.37 12 12.85 59.19 4.4 4.2
2017-12-12 06:00:00 0 6914 13.23 12.78 13.62 57.66 4.9 4.6
2017-12-12 07:00:00 0 6914 13.33 13.11 13.51 58.16 5.1 5
2017-12-12 08:00:00 0 6894 13.17 12.61 13.41 59.63 5.3 5.1
2017-12-12 09:00:00 0 6914 13.51 13.12 13.73 59.56 5.6 5.4
2017-12-12 10:00:00 0 6962 14.09 13.78 14.6 59.29 6.1 5.8
2017-12-12 11:00:00 0 7060 14.46 14.02 14.77 60.31 6.7 6.5
2017-12-12 12:00:00 0 7176 15.59 14.74 16.34 57.17 7 6.6
2017-12-12 13:00:00 0 7186 16.5 16.3 16.76 55.18 7.3 6.9
2017-12-12 14:00:00 0 7166 16.54 16.32 16.76 55.71 7.4 7.1
2017-12-12 15:00:00 0 7206 16.6 16.37 16.87 53.7 7 6.7
2017-12-12 16:00:00 0 7060 16.31 16.03 16.6 55.01 7.1 6.9
2017-12-12 17:00:00 0 7030 16.21 16.06 16.47 55.1 7 6.8
2017-12-12 18:00:00 0 7000 15.88 15.66 16.15 55.42 6.8 6.4
2017-12-12 19:00:00 0 7000 15.6 14.52 16.16 55.75 6.6 6.3
2017-12-12 20:00:00 0 6992 13.82 12.55 15.27 64.59 7.1 6.5
2017-12-12 21:00:00 0 6972 12.06 11.19 12.93 12.22 0